createdAt,value
2023-03-17T00:00:46.757Z,13.20
2023-03-17T00:03:27.059Z,13.96
2023-03-17T00:05:55.869Z,13.45
2023-03-17T00:08:29.238Z,13.22
2023-03-17T00:10:56.594Z,13.35
2023-03-17T00:13:23.956Z,12.29
2023-03-17T00:15:56.946Z,13.04
2023-03-17T00:18:24.776Z,13.33
2023-03-17T00:20:53.083Z,12.74
2023-03-17T00:23:25.375Z,13.53
2023-03-17T00:25:54.203Z,13.59
2023-03-17T00:28:24.633Z,13.31
2023-03-17T00:30:56.454Z,13.01
2023-03-17T00:33:27.906Z,13.25
2023-03-17T00:35:57.154Z,12.89
2023-03-17T00:38:25.622Z,13.36
2023-03-17T00:40:53.008Z,13.36
2023-03-17T00:43:22.684Z,13.00
2023-03-17T00:45:51.081Z,12.83
2023-03-17T00:48:21.068Z,12.67
2023-03-17T00:50:50.067Z,13.39
2023-03-17T00:53:23.187Z,13.18
2023-03-17T00:55:50.270Z,12.75
2023-03-17T00:58:34.411Z,13.63
2023-03-17T01:01:02.288Z,13.16
2023-03-17T01:03:29.609Z,13.52
2023-03-17T01:05:57.971Z,13.21
2023-03-17T01:08:25.738Z,12.79
2023-03-17T01:10:54.671Z,13.52
2023-03-17T01:13:22.232Z,13.62
2023-03-17T01:15:52.013Z,13.91
2023-03-17T01:18:22.794Z,13.61
2023-03-17T01:20:51.944Z,13.33
2023-03-17T01:23:19.236Z,12.68
2023-03-17T01:25:46.303Z,13.42
2023-03-17T01:28:19.014Z,12.98
2023-03-17T01:30:46.991Z,12.50
2023-03-17T01:33:14.876Z,13.01
2023-03-17T01:35:43.778Z,12.58
2023-03-17T01:38:11.855Z,12.34
2023-03-17T01:40:46.811Z,12.73
2023-03-17T01:43:17.432Z,13.60
2023-03-17T01:46:30.932Z,13.64
2023-03-17T01:49:21.797Z,13.81
2023-03-17T01:52:10.263Z,13.64
2023-03-17T01:55:08.066Z,13.64
2023-03-17T01:57:40.069Z,13.09
2023-03-17T02:00:16.330Z,13.47
2023-03-17T02:02:48.936Z,12.80
2023-03-17T02:05:21.537Z,13.43
2023-03-17T02:07:49.261Z,12.73
2023-03-17T02:10:20.610Z,13.44
2023-03-17T02:12:54.085Z,13.41
2023-03-17T02:15:22.112Z,13.19
2023-03-17T02:17:50.429Z,12.17
2023-03-17T02:20:17.686Z,12.90
2023-03-17T02:22:49.532Z,13.21
2023-03-17T02:25:19.808Z,13.05
2023-03-17T02:27:51.360Z,12.89
2023-03-17T02:30:23.516Z,12.62
2023-03-17T02:32:51.059Z,13.06
2023-03-17T02:35:19.558Z,13.51
2023-03-17T02:37:47.206Z,13.40
2023-03-17T02:40:16.576Z,13.43
2023-03-17T02:42:44.136Z,12.18
2023-03-17T02:45:12.992Z,13.07
2023-03-17T02:47:41.449Z,12.57
2023-03-17T02:50:12.160Z,12.62
2023-03-17T02:52:39.115Z,12.69
2023-03-17T02:55:08.287Z,12.68
2023-03-17T02:57:38.381Z,12.89
2023-03-17T03:00:06.007Z,12.87
2023-03-17T03:02:33.621Z,12.18
2023-03-17T03:05:01.025Z,11.90
2023-03-17T03:07:28.419Z,12.21
2023-03-17T03:09:55.973Z,12.40
2023-03-17T03:12:23.376Z,12.80
2023-03-17T03:14:50.448Z,12.95
2023-03-17T03:17:18.190Z,13.06
2023-03-17T03:19:45.581Z,12.04
2023-03-17T03:22:12.908Z,12.42
2023-03-17T03:24:39.843Z,12.70
2023-03-17T03:27:07.145Z,12.42
2023-03-17T03:29:34.430Z,13.11
2023-03-17T03:32:02.106Z,13.09
2023-03-17T03:34:29.608Z,12.50
2023-03-17T03:36:57.041Z,13.10
2023-03-17T03:39:24.106Z,13.01
2023-03-17T03:41:51.125Z,12.56
2023-03-17T03:44:18.752Z,12.60
2023-03-17T03:46:45.803Z,13.01
2023-03-17T03:49:13.191Z,13.22
2023-03-17T03:51:40.579Z,13.03
2023-03-17T03:54:07.640Z,13.08
2023-03-17T03:56:35.327Z,13.21
2023-03-17T03:59:03.041Z,13.33
2023-03-17T04:01:30.059Z,13.26
2023-03-17T04:03:57.386Z,11.88
2023-03-17T04:06:24.330Z,12.56
2023-03-17T04:08:51.656Z,13.00
2023-03-17T04:11:18.647Z,12.69
2023-03-17T04:13:46.256Z,12.86
2023-03-17T04:16:13.666Z,12.93
2023-03-17T04:18:41.359Z,12.70
2023-03-17T04:21:08.742Z,12.60
2023-03-17T04:23:36.292Z,12.69
2023-03-17T04:26:04.166Z,12.89
2023-03-17T04:28:31.400Z,12.75
2023-03-17T04:30:58.350Z,12.69
2023-03-17T04:33:26.761Z,13.43
2023-03-17T04:35:54.121Z,12.57
2023-03-17T04:38:21.775Z,12.48
2023-03-17T04:40:50.971Z,12.61
2023-03-17T04:43:18.349Z,12.32
2023-03-17T04:45:45.312Z,12.57
2023-03-17T04:48:12.335Z,12.54
2023-03-17T04:50:39.736Z,12.12
2023-03-17T04:53:06.809Z,12.33
2023-03-17T04:55:34.203Z,12.41
2023-03-17T04:58:01.356Z,13.22
2023-03-17T05:00:28.930Z,12.98
2023-03-17T05:02:56.464Z,12.94
2023-03-17T05:05:23.575Z,11.79
2023-03-17T05:07:50.803Z,12.14
2023-03-17T05:10:18.283Z,12.25
2023-03-17T05:12:45.414Z,12.16
2023-03-17T05:15:12.880Z,12.24
2023-03-17T05:17:41.308Z,12.14
2023-03-17T05:20:09.647Z,12.16
2023-03-17T05:22:37.251Z,12.29
2023-03-17T05:25:06.720Z,12.35
2023-03-17T05:27:33.802Z,12.14
2023-03-17T05:30:00.929Z,12.08
2023-03-17T05:32:27.937Z,11.96
2023-03-17T05:34:55.305Z,11.89
2023-03-17T05:37:22.661Z,12.03
2023-03-17T05:39:49.989Z,11.85
2023-03-17T05:42:17.405Z,11.61
2023-03-17T05:44:44.517Z,11.70
2023-03-17T05:47:11.991Z,11.84
2023-03-17T05:49:39.359Z,11.98
2023-03-17T05:52:06.747Z,11.92
2023-03-17T05:54:33.736Z,11.83
2023-03-17T05:57:01.219Z,11.94
2023-03-17T05:59:29.119Z,11.85
2023-03-17T06:01:57.165Z,11.84
2023-03-17T06:04:24.624Z,11.85
2023-03-17T06:06:51.782Z,11.85
2023-03-17T06:09:19.285Z,11.83
2023-03-17T06:11:46.688Z,11.88
2023-03-17T06:14:14.719Z,11.97
2023-03-17T06:16:42.166Z,12.02
2023-03-17T06:19:09.128Z,12.05
2023-03-17T06:21:36.941Z,12.17
2023-03-17T06:24:04.658Z,12.20
2023-03-17T06:26:32.028Z,12.32
2023-03-17T06:28:59.320Z,12.24
2023-03-17T06:31:27.918Z,12.26
2023-03-17T06:33:55.598Z,12.30
2023-03-17T06:36:23.287Z,12.25
2023-03-17T06:38:50.897Z,12.39
2023-03-17T06:41:18.982Z,12.26
2023-03-17T06:43:46.592Z,12.23
2023-03-17T06:46:14.209Z,12.21
2023-03-17T06:48:41.206Z,12.07
2023-03-17T06:51:08.654Z,14.20
2023-03-17T06:53:36.246Z,13.31
2023-03-17T06:56:05.086Z,14.41
2023-03-17T06:58:33.146Z,12.78
2023-03-17T07:01:00.382Z,12.57
2023-03-17T07:03:28.007Z,12.73
2023-03-17T07:05:55.388Z,12.73
2023-03-17T07:08:22.748Z,12.82
2023-03-17T07:10:50.103Z,12.87
2023-03-17T07:13:17.079Z,12.85
2023-03-17T07:15:45.483Z,12.97
2023-03-17T07:18:13.451Z,12.63
2023-03-17T07:20:41.168Z,12.57
2023-03-17T07:23:15.628Z,13.03
2023-03-17T07:25:46.033Z,12.94
2023-03-17T07:28:16.300Z,12.98
2023-03-17T07:30:46.832Z,12.96
2023-03-17T07:33:14.634Z,13.23
2023-03-17T07:35:42.475Z,13.13
2023-03-17T07:38:10.194Z,13.00
2023-03-17T07:40:37.778Z,12.76
2023-03-17T07:43:05.497Z,13.25
2023-03-17T07:45:33.476Z,13.30
2023-03-17T07:48:01.257Z,12.66
2023-03-17T07:50:28.794Z,13.39
2023-03-17T07:52:56.673Z,13.48
2023-03-17T07:55:24.176Z,13.46
2023-03-17T07:57:51.651Z,13.28
2023-03-17T08:00:21.759Z,13.16
2023-03-17T08:03:03.192Z,13.17
2023-03-17T08:05:35.937Z,13.43
2023-03-17T08:08:05.035Z,13.64
2023-03-17T08:10:32.655Z,13.65
2023-03-17T08:13:00.226Z,12.99
2023-03-17T08:15:27.267Z,13.59
2023-03-17T08:17:54.203Z,13.28
2023-03-17T08:20:21.824Z,13.78
2023-03-17T08:22:48.856Z,13.90
2023-03-17T08:25:16.364Z,13.72
2023-03-17T08:27:43.404Z,13.73
2023-03-17T08:30:12.590Z,13.78
2023-03-17T08:32:39.595Z,13.64
2023-03-17T08:35:06.931Z,13.61
2023-03-17T08:37:34.335Z,13.47
2023-03-17T08:40:01.498Z,13.35
2023-03-17T08:42:28.519Z,13.46
2023-03-17T08:44:55.723Z,13.77
2023-03-17T08:47:23.601Z,13.70
2023-03-17T08:49:50.977Z,14.22
2023-03-17T08:52:18.340Z,14.12
2023-03-17T08:54:47.035Z,14.49
2023-03-17T08:57:15.689Z,14.40
2023-03-17T08:59:42.774Z,14.27
2023-03-17T09:02:11.983Z,14.66
2023-03-17T09:04:40.313Z,14.22
2023-03-17T09:07:09.695Z,15.24
2023-03-17T09:09:37.646Z,14.99
2023-03-17T09:12:06.598Z,14.95
2023-03-17T09:14:42.821Z,15.17
2023-03-17T09:17:11.319Z,15.26
2023-03-17T09:19:38.894Z,15.85
2023-03-17T09:22:06.792Z,15.87
2023-03-17T09:24:34.200Z,15.47
2023-03-17T09:27:01.573Z,15.54
2023-03-17T09:29:28.573Z,15.98
2023-03-17T09:31:56.989Z,16.50
2023-03-17T09:34:25.576Z,15.90
2023-03-17T09:36:54.603Z,16.43
2023-03-17T09:39:24.177Z,16.95
2023-03-17T09:42:01.900Z,16.74
2023-03-17T09:44:32.259Z,16.60
2023-03-17T09:47:08.465Z,17.26
2023-03-17T09:49:47.504Z,17.12
2023-03-17T09:52:25.995Z,17.42
2023-03-17T09:54:53.615Z,17.51
2023-03-17T09:57:39.619Z,17.05
2023-03-17T10:00:16.896Z,16.65
2023-03-17T10:02:45.419Z,16.84
2023-03-17T10:05:26.261Z,17.10
2023-03-17T10:08:06.314Z,17.70
2023-03-17T10:11:13.368Z,17.96
2023-03-17T10:13:52.214Z,18.47
2023-03-17T10:16:42.783Z,19.02
2023-03-17T10:19:41.572Z,18.88
2023-03-17T10:22:25.277Z,19.26
2023-03-17T10:24:58.006Z,19.33
2023-03-17T10:27:26.274Z,19.05
2023-03-17T10:29:53.654Z,19.20
2023-03-17T10:32:20.830Z,19.31
2023-03-17T10:34:48.799Z,19.50
2023-03-17T10:37:23.379Z,19.89
2023-03-17T10:39:59.718Z,20.36
2023-03-17T10:42:29.806Z,20.54
2023-03-17T10:45:07.502Z,20.04
2023-03-17T10:47:39.871Z,20.01
2023-03-17T10:50:54.385Z,20.08
2023-03-17T10:53:30.585Z,20.19
2023-03-17T10:56:07.437Z,19.84
2023-03-17T10:58:44.530Z,20.59
2023-03-17T11:01:34.678Z,20.72
2023-03-17T11:04:06.357Z,20.48
2023-03-17T11:06:42.794Z,20.68
2023-03-17T11:09:16.704Z,20.71
2023-03-17T11:11:50.030Z,21.15
2023-03-17T11:14:20.406Z,21.26
2023-03-17T11:16:54.877Z,21.55
2023-03-17T11:19:34.316Z,21.92
2023-03-17T11:22:20.760Z,22.32
2023-03-17T11:25:27.144Z,22.48
2023-03-17T11:28:20.381Z,22.29
2023-03-17T11:31:19.859Z,22.61
2023-03-17T11:34:35.122Z,21.95
2023-03-17T11:37:26.324Z,23.28
2023-03-17T11:40:19.777Z,23.92
2023-03-17T11:43:11.443Z,25.12
2023-03-17T11:46:17.115Z,24.18
2023-03-17T11:49:00.900Z,23.26
2023-03-17T11:51:37.454Z,23.62
2023-03-17T11:54:36.070Z,24.09
2023-03-17T11:57:20.668Z,23.53
2023-03-17T11:59:58.945Z,23.45
2023-03-17T12:02:37.528Z,24.74
2023-03-17T12:05:17.087Z,23.38
2023-03-17T12:07:53.170Z,25.15
2023-03-17T12:10:42.264Z,26.34
2023-03-17T12:13:20.436Z,26.88
2023-03-17T12:15:53.121Z,27.17
2023-03-17T12:18:37.653Z,26.73
2023-03-17T12:21:15.335Z,24.87
2023-03-17T12:23:52.351Z,25.78
2023-03-17T12:26:32.893Z,25.95
2023-03-17T12:29:17.103Z,25.60
2023-03-17T12:32:29.432Z,25.00
2023-03-17T12:34:58.793Z,25.14
2023-03-17T12:37:28.549Z,25.06
2023-03-17T12:40:06.921Z,24.25
2023-03-17T12:43:21.898Z,24.68
2023-03-17T12:46:04.614Z,24.66
2023-03-17T12:48:49.676Z,26.13
2023-03-17T12:52:02.619Z,25.81
2023-03-17T12:54:34.232Z,25.61
2023-03-17T12:57:18.539Z,25.26
2023-03-17T12:59:49.744Z,25.65
2023-03-17T13:02:28.881Z,25.93
2023-03-17T13:05:01.804Z,25.50
2023-03-17T13:07:40.403Z,24.95
2023-03-17T13:10:40.113Z,25.08
2023-03-17T13:13:21.729Z,24.80
2023-03-17T13:15:58.004Z,24.37
2023-03-17T13:18:47.165Z,24.31
2023-03-17T13:21:17.478Z,23.96
2023-03-17T13:24:13.679Z,24.38
2023-03-17T13:26:56.383Z,24.45
2023-03-17T13:29:32.908Z,25.24
2023-03-17T13:32:27.781Z,25.00
2023-03-17T13:35:17.585Z,25.81
2023-03-17T13:38:03.715Z,26.80
2023-03-17T13:40:55.763Z,25.91
2023-03-17T13:43:22.636Z,25.82
2023-03-17T13:45:50.356Z,25.81
2023-03-17T13:48:47.534Z,25.94
2023-03-17T13:51:33.851Z,25.98
2023-03-17T13:54:33.975Z,25.81
2023-03-17T13:57:28.785Z,25.71
2023-03-17T14:00:31.661Z,25.48
2023-03-17T14:03:25.579Z,25.74
2023-03-17T14:05:55.696Z,25.08
2023-03-17T14:08:47.431Z,24.72
2023-03-17T14:11:31.547Z,24.49
2023-03-17T14:14:31.568Z,24.53
2023-03-17T14:17:29.275Z,24.55
2023-03-17T14:20:12.938Z,24.31
2023-03-17T14:22:45.872Z,24.00
2023-03-17T14:25:26.161Z,24.05
2023-03-17T14:27:57.093Z,24.11
2023-03-17T14:30:29.625Z,24.25
2023-03-17T14:33:26.664Z,24.28
2023-03-17T14:35:59.192Z,24.20
2023-03-17T14:38:50.030Z,24.10
2023-03-17T14:41:24.066Z,23.98
2023-03-17T14:43:54.418Z,24.12
2023-03-17T14:46:37.439Z,24.31
2023-03-17T14:49:20.383Z,24.15
2023-03-17T14:51:57.385Z,23.47
2023-03-17T14:54:31.348Z,23.31
2023-03-17T14:57:06.956Z,23.32
2023-03-17T14:59:40.544Z,23.14
2023-03-17T15:02:24.696Z,23.49
2023-03-17T15:04:57.124Z,23.65
2023-03-17T15:07:36.814Z,23.56
2023-03-17T15:10:07.336Z,22.93
2023-03-17T15:12:34.370Z,22.77
2023-03-17T15:15:12.581Z,22.95
2023-03-17T15:17:39.663Z,22.91
2023-03-17T15:20:14.620Z,23.31
2023-03-17T15:22:45.914Z,23.24
2023-03-17T15:25:44.978Z,23.26
2023-03-17T15:28:14.897Z,22.96
2023-03-17T15:30:48.525Z,22.94
2023-03-17T15:33:39.614Z,22.83
2023-03-17T15:36:07.708Z,22.30
2023-03-17T15:38:37.003Z,22.97
2023-03-17T15:41:04.604Z,22.75
2023-03-17T15:43:32.002Z,23.05
2023-03-17T15:46:04.401Z,23.18
2023-03-17T15:48:36.213Z,23.04
2023-03-17T15:51:05.132Z,22.90
2023-03-17T15:53:32.315Z,22.99
2023-03-17T15:55:59.773Z,22.29
2023-03-17T15:58:27.065Z,22.32
2023-03-17T16:00:57.313Z,22.51
2023-03-17T16:03:41.219Z,22.67
2023-03-17T16:06:20.898Z,22.56
2023-03-17T16:08:49.112Z,22.36
2023-03-17T16:11:19.999Z,22.14
2023-03-17T16:13:47.828Z,22.79
2023-03-17T16:16:35.800Z,22.86
2023-03-17T16:19:10.287Z,22.71
2023-03-17T16:21:37.467Z,22.54
2023-03-17T16:24:04.979Z,22.26
2023-03-17T16:26:31.989Z,22.53
2023-03-17T16:28:58.985Z,22.04
2023-03-17T16:31:31.167Z,22.43
2023-03-17T16:33:58.690Z,22.47
2023-03-17T16:36:26.346Z,22.14
2023-03-17T16:38:53.685Z,21.88
2023-03-17T16:41:23.786Z,22.26
2023-03-17T16:43:59.748Z,22.01
2023-03-17T16:46:28.373Z,21.87
2023-03-17T16:48:56.130Z,21.57
2023-03-17T16:51:25.489Z,21.67
2023-03-17T16:53:52.464Z,21.83
2023-03-17T16:56:22.386Z,21.79
2023-03-17T16:58:49.697Z,21.33
2023-03-17T17:01:26.395Z,21.63
2023-03-17T17:03:54.174Z,21.74
2023-03-17T17:06:23.079Z,21.17
2023-03-17T17:08:51.538Z,21.11
2023-03-17T17:11:19.935Z,21.29
2023-03-17T17:13:48.774Z,21.49
2023-03-17T17:16:29.552Z,21.20
2023-03-17T17:18:58.387Z,21.13
2023-03-17T17:21:26.561Z,21.12
2023-03-17T17:23:54.124Z,21.02
2023-03-17T17:26:22.323Z,21.13
2023-03-17T17:28:49.675Z,20.77
2023-03-17T17:31:16.980Z,20.99
2023-03-17T17:33:44.020Z,20.76
2023-03-17T17:36:16.838Z,20.68
2023-03-17T17:38:44.720Z,20.62
2023-03-17T17:41:13.046Z,20.51
2023-03-17T17:43:41.098Z,20.59
2023-03-17T17:46:16.751Z,20.82
2023-03-17T17:48:43.994Z,20.52
2023-03-17T17:51:11.599Z,20.61
2023-03-17T17:53:38.574Z,20.53
2023-03-17T17:56:06.580Z,20.55
2023-03-17T17:58:33.605Z,20.13
2023-03-17T18:01:00.989Z,20.22
2023-03-17T18:03:28.380Z,20.38
2023-03-17T18:05:57.736Z,20.45
2023-03-17T18:08:25.963Z,20.43
2023-03-17T18:10:53.126Z,19.91
2023-03-17T18:13:20.077Z,19.65
2023-03-17T18:15:47.176Z,19.68
2023-03-17T18:18:14.410Z,19.81
2023-03-17T18:20:41.436Z,19.44
2023-03-17T18:23:10.888Z,19.57
2023-03-17T18:25:38.215Z,19.70
2023-03-17T18:28:05.346Z,20.19
2023-03-17T18:30:35.000Z,20.27
2023-03-17T18:33:17.353Z,19.97
2023-03-17T18:35:48.048Z,19.69
2023-03-17T18:38:15.228Z,19.72
2023-03-17T18:40:43.109Z,19.87
2023-03-17T18:43:10.147Z,19.53
2023-03-17T18:45:37.952Z,19.86
2023-03-17T18:48:05.062Z,19.58
2023-03-17T18:50:33.072Z,19.64
2023-03-17T18:53:00.947Z,19.52
2023-03-17T18:55:28.004Z,19.36
2023-03-17T18:57:55.115Z,19.66
2023-03-17T19:00:25.126Z,20.43
2023-03-17T19:02:52.886Z,18.90
2023-03-17T19:05:20.298Z,19.22
2023-03-17T19:07:47.483Z,18.77
2023-03-17T19:10:15.060Z,18.99
2023-03-17T19:12:42.710Z,19.22
2023-03-17T19:15:10.683Z,19.62
2023-03-17T19:17:38.444Z,18.92
2023-03-17T19:20:07.288Z,18.35
2023-03-17T19:22:34.874Z,18.55
2023-03-17T19:25:04.429Z,19.43
2023-03-17T19:27:31.888Z,19.14
2023-03-17T19:29:58.883Z,19.46
2023-03-17T19:32:26.022Z,18.74
2023-03-17T19:34:53.587Z,18.63
2023-03-17T19:37:21.045Z,18.67
2023-03-17T19:39:48.318Z,19.46
2023-03-17T19:42:16.177Z,19.64
2023-03-17T19:44:43.861Z,19.39
2023-03-17T19:47:11.463Z,18.66
2023-03-17T19:49:39.242Z,18.30
2023-03-17T19:52:07.762Z,19.45
2023-03-17T19:54:38.490Z,19.52
2023-03-17T19:57:05.691Z,19.60
2023-03-17T19:59:32.812Z,19.80
2023-03-17T20:02:00.082Z,19.05
2023-03-17T20:04:27.177Z,19.60
2023-03-17T20:06:55.858Z,19.37
2023-03-17T20:09:27.745Z,19.80
2023-03-17T20:11:56.513Z,19.19
2023-03-17T20:14:24.579Z,19.63
2023-03-17T20:16:53.513Z,19.37
2023-03-17T20:19:21.006Z,19.37
2023-03-17T20:21:48.106Z,19.39
2023-03-17T20:24:15.317Z,19.17
2023-03-17T20:26:44.645Z,18.26
2023-03-17T20:29:16.184Z,17.74
2023-03-17T20:31:43.852Z,18.34
2023-03-17T20:34:11.825Z,17.33
2023-03-17T20:36:42.408Z,18.41
2023-03-17T20:39:14.796Z,18.12
2023-03-17T20:41:42.192Z,19.05
2023-03-17T20:44:09.781Z,18.90
2023-03-17T20:46:36.870Z,18.62
2023-03-17T20:49:05.616Z,18.62
2023-03-17T20:51:33.949Z,19.06
2023-03-17T20:54:02.307Z,19.16
2023-03-17T20:56:30.737Z,18.88
2023-03-17T20:58:58.647Z,18.79
2023-03-17T21:01:26.675Z,18.44
2023-03-17T21:03:53.856Z,18.46
2023-03-17T21:06:21.221Z,18.80
2023-03-17T21:08:48.541Z,18.87
2023-03-17T21:11:19.100Z,18.95
2023-03-17T21:13:47.141Z,18.93
2023-03-17T21:16:22.526Z,18.72
2023-03-17T21:18:49.837Z,18.39
2023-03-17T21:21:18.134Z,18.44
2023-03-17T21:23:45.339Z,18.73
2023-03-17T21:26:14.212Z,18.78
2023-03-17T21:28:42.478Z,18.83
2023-03-17T21:31:12.102Z,18.79
2023-03-17T21:33:39.832Z,18.80
2023-03-17T21:36:07.583Z,18.83
2023-03-17T21:38:35.700Z,18.59
2023-03-17T21:41:39.539Z,18.36
2023-03-17T21:44:08.256Z,18.31
2023-03-17T21:46:35.634Z,18.11
2023-03-17T21:49:02.697Z,17.56
2023-03-17T21:51:30.357Z,18.25
2023-03-17T21:53:57.941Z,18.42
2023-03-17T21:56:25.805Z,18.51
2023-03-17T21:58:52.880Z,18.14
2023-03-17T22:01:23.537Z,18.31
2023-03-17T22:03:52.237Z,18.66
2023-03-17T22:06:20.465Z,18.63
2023-03-17T22:08:48.767Z,18.58
2023-03-17T22:11:18.740Z,18.35
2023-03-17T22:13:46.615Z,18.33
2023-03-17T22:16:15.267Z,18.43
2023-03-17T22:18:43.088Z,18.15
2023-03-17T22:21:10.770Z,18.12
2023-03-17T22:23:42.281Z,18.09
2023-03-17T22:26:16.755Z,18.40
2023-03-17T22:28:45.492Z,18.26
2023-03-17T22:31:19.905Z,18.26
2023-03-17T22:33:48.820Z,17.84
2023-03-17T22:36:16.474Z,17.98
2023-03-17T22:38:44.468Z,17.80
2023-03-17T22:41:19.597Z,18.14
2023-03-17T22:43:47.160Z,18.06
2023-03-17T22:46:15.421Z,17.95
2023-03-17T22:48:42.956Z,17.72
2023-03-17T22:51:21.471Z,17.88
2023-03-17T22:53:50.745Z,17.92
2023-03-17T22:56:18.816Z,18.08
2023-03-17T22:58:47.059Z,17.82
2023-03-17T23:01:16.457Z,17.81
2023-03-17T23:03:44.099Z,17.78
2023-03-17T23:06:13.087Z,17.72
2023-03-17T23:08:43.029Z,17.83
2023-03-17T23:11:14.585Z,17.44
2023-03-17T23:13:41.883Z,17.27
2023-03-17T23:16:10.060Z,17.67
2023-03-17T23:18:37.524Z,17.26
2023-03-17T23:21:06.635Z,17.45
2023-03-17T23:23:35.742Z,17.32
2023-03-17T23:26:03.043Z,17.45
2023-03-17T23:28:30.062Z,17.61
2023-03-17T23:30:57.458Z,17.48
2023-03-17T23:33:25.603Z,17.40
2023-03-17T23:35:53.520Z,17.32
2023-03-17T23:38:21.507Z,17.59
2023-03-17T23:40:49.952Z,17.12
2023-03-17T23:43:17.000Z,17.31
2023-03-17T23:45:45.431Z,17.06
2023-03-17T23:48:12.735Z,16.88
2023-03-17T23:50:41.449Z,16.78
2023-03-17T23:53:09.909Z,16.88
2023-03-17T23:55:37.160Z,16.68
2023-03-17T23:58:04.943Z,17.10
